CheckWX is a tool to help pilots better visualize weather data.  It is not intended as a substitute for an official pre-flight weather briefing.

08:53:11 UTC

ESIB METAR
Såtenäs Air Base Airport
Såtenäs, Sweden
Current

33 mins ago

ESIB 220820Z 14004KT 090V200 9999 SCT015 20/17 Q1009
Observed
May-22 @ 08:20 UTC
Wind
  • 140° at 4 KTS
Visibility
10,000+ meters
Flight Rules
VFR
Cloud Levels
  • Scattered at 1,500' AGL
Temperature
20°C / 68°F
Dewpoint
17°C / 63°F
Humidity
83%
Altimeter
29.79" Hg
Pressure
1008.92 hPa
Previous

1 hour ago

ESIB 220750Z VRB02KT 9999 SCT014 19/17 Q1009
Observed
May-22 @ 07:50 UTC
Wind
  • Variable at 2 KTS
Visibility
10,000+ meters
Flight Rules
VFR
Cloud Levels
  • Scattered at 1,400' AGL
Temperature
19°C / 66°F
Dewpoint
17°C / 63°F
Humidity
88%
Altimeter
29.79" Hg
Pressure
1008.92 hPa
Previous

2 hours ago

ESIB 220720Z 16004KT 120V210 9999 SCT012 18/17 Q1009
Observed
May-22 @ 07:20 UTC
Wind
  • 160° at 4 KTS
Visibility
10,000+ meters
Flight Rules
VFR
Cloud Levels
  • Scattered at 1,200' AGL
Temperature
18°C / 64°F
Dewpoint
17°C / 63°F
Humidity
94%
Altimeter
29.79" Hg
Pressure
1008.92 hPa